createdAt,value
2019-02-22T00:03:58.610Z,145.30
2019-02-22T00:09:08.697Z,146.50
2019-02-22T00:14:15.386Z,150.43
2019-02-22T00:19:23.963Z,143.83
2019-02-22T00:24:33.091Z,140.47
2019-02-22T00:29:41.931Z,143.63
2019-02-22T00:34:48.879Z,136.77
2019-02-22T00:39:55.767Z,133.87
2019-02-22T00:45:02.542Z,144.53
2019-02-22T00:50:10.079Z,131.33
2019-02-22T00:55:18.101Z,125.83
2019-02-22T01:00:26.224Z,136.03
2019-02-22T01:05:35.146Z,129.20
2019-02-22T01:10:42.569Z,133.30
2019-02-22T01:15:49.334Z,127.43
2019-02-22T01:20:55.825Z,124.50
2019-02-22T01:26:04.223Z,127.23
2019-02-22T01:31:11.126Z,111.80
2019-02-22T01:36:18.053Z,124.67
2019-02-22T01:41:24.143Z,128.17
2019-02-22T01:46:32.457Z,136.47
2019-02-22T01:51:39.766Z,149.23
2019-02-22T01:56:47.919Z,138.47
2019-02-22T02:01:55.172Z,123.50
2019-02-22T02:07:02.260Z,116.53
2019-02-22T02:12:09.178Z,108.30
2019-02-22T02:17:17.855Z,65.80
2019-02-22T02:22:24.463Z,127.63
2019-02-22T02:27:30.455Z,151.70
2019-02-22T02:32:36.530Z,137.17
2019-02-22T02:37:42.935Z,150.83
2019-02-22T02:42:49.877Z,152.53
2019-02-22T02:47:57.516Z,136.87
2019-02-22T02:53:04.884Z,135.57
2019-02-22T02:58:14.513Z,117.73
2019-02-22T03:03:22.281Z,106.13
2019-02-22T03:08:29.801Z,61.87
2019-02-22T03:13:35.914Z,102.60
2019-02-22T03:18:42.745Z,89.43
2019-02-22T03:23:52.636Z,58.27
2019-02-22T03:29:00.721Z,59.53
2019-02-22T03:34:10.559Z,56.20
2019-02-22T03:39:17.588Z,64.17
2019-02-22T03:44:27.488Z,67.20
2019-02-22T03:49:34.056Z,61.70
2019-02-22T03:54:41.559Z,63.70
2019-02-22T03:59:51.024Z,56.83
2019-02-22T04:04:57.353Z,62.10
2019-02-22T04:10:04.947Z,56.83
2019-02-22T04:15:13.473Z,42.23
2019-02-22T04:20:21.264Z,65.17
2019-02-22T04:25:27.721Z,46.03
2019-02-22T04:30:34.653Z,59.60
2019-02-22T04:35:41.574Z,53.07
2019-02-22T04:40:51.160Z,54.30
2019-02-22T04:45:57.704Z,52.53
2019-02-22T04:51:04.226Z,53.90
2019-02-22T04:56:10.904Z,44.37
2019-02-22T05:01:37.668Z,47.80
2019-02-22T05:06:45.236Z,45.47
2019-02-22T05:11:52.564Z,39.47
2019-02-22T05:16:59.539Z,30.43
2019-02-22T05:22:06.401Z,27.03
2019-02-22T05:27:13.227Z,26.60
2019-02-22T05:32:20.107Z,36.47
2019-02-22T05:37:25.868Z,28.03
2019-02-22T05:42:33.161Z,31.13
2019-02-22T05:47:40.136Z,31.07
2019-02-22T05:52:46.048Z,31.47
2019-02-22T05:57:54.398Z,23.97
2019-02-22T06:03:03.010Z,19.97
2019-02-22T06:08:09.847Z,21.60
2019-02-22T06:13:16.451Z,21.57
2019-02-22T06:18:23.967Z,18.67
2019-02-22T06:23:31.537Z,20.30
2019-02-22T06:28:39.204Z,18.57
2019-02-22T06:33:46.011Z,22.07
2019-02-22T06:38:53.123Z,17.67
2019-02-22T06:44:00.599Z,17.67
2019-02-22T06:49:08.063Z,19.67
2019-02-22T06:54:15.344Z,20.73
2019-02-22T06:59:34.426Z,21.70
2019-02-22T07:04:41.128Z,20.67
2019-02-22T07:09:48.421Z,19.97
2019-02-22T07:14:55.486Z,21.00
2019-02-22T07:20:04.755Z,19.57
2019-02-22T07:25:23.304Z,17.73
2019-02-22T07:30:29.222Z,19.43
2019-02-22T07:35:35.242Z,22.07
2019-02-22T07:40:42.200Z,14.07
2019-02-22T07:45:49.211Z,25.17
2019-02-22T07:50:58.123Z,22.80
2019-02-22T07:56:04.556Z,15.23
2019-02-22T08:01:11.817Z,20.37
2019-02-22T08:06:18.642Z,19.40
2019-02-22T08:11:24.561Z,20.97
2019-02-22T08:16:32.106Z,19.17
2019-02-22T08:21:38.104Z,24.57
2019-02-22T08:27:07.313Z,20.50
2019-02-22T08:32:13.879Z,23.73
2019-02-22T08:37:20.769Z,21.73
2019-02-22T08:42:26.806Z,20.57
2019-02-22T08:47:32.586Z,22.30
2019-02-22T08:52:38.484Z,16.67
2019-02-22T08:57:44.369Z,16.20
2019-02-22T09:02:50.290Z,15.60
2019-02-22T09:07:57.520Z,20.00
2019-02-22T09:13:04.336Z,14.13
2019-02-22T09:18:12.119Z,16.23
2019-02-22T09:23:18.924Z,16.77
2019-02-22T09:28:25.287Z,20.27
2019-02-22T09:33:32.222Z,18.20
2019-02-22T09:38:40.325Z,19.47
2019-02-22T09:43:55.403Z,17.40
2019-02-22T09:48:56.269Z,19.40
2019-02-22T09:54:03.433Z,19.00
2019-02-22T09:59:11.153Z,14.97
2019-02-22T10:04:19.672Z,11.97
2019-02-22T10:09:25.634Z,15.57
2019-02-22T10:14:32.323Z,13.03
2019-02-22T10:19:38.315Z,17.47
2019-02-22T10:24:45.101Z,15.70
2019-02-22T10:29:51.978Z,14.80
2019-02-22T10:34:59.036Z,12.03
2019-02-22T10:40:09.041Z,13.93
2019-02-22T10:45:15.444Z,18.47
2019-02-22T10:50:22.783Z,17.63
2019-02-22T10:55:28.809Z,19.57
2019-02-22T11:00:36.635Z,21.23
2019-02-22T11:05:43.274Z,19.67
2019-02-22T11:10:50.065Z,21.80
2019-02-22T11:15:56.971Z,18.47
2019-02-22T11:21:04.499Z,22.83
2019-02-22T11:26:11.337Z,19.60
2019-02-22T11:31:36.569Z,20.27
2019-02-22T11:36:43.673Z,21.10
2019-02-22T11:41:50.521Z,22.67
2019-02-22T11:46:57.165Z,19.57
2019-02-22T11:52:04.061Z,21.77
2019-02-22T11:57:11.556Z,20.70
2019-02-22T12:02:18.507Z,19.10
2019-02-22T12:07:24.672Z,16.50
2019-02-22T12:12:31.632Z,26.20
2019-02-22T12:17:37.615Z,25.73
2019-02-22T12:22:43.464Z,25.13
2019-02-22T12:27:50.676Z,26.70
2019-02-22T12:32:57.069Z,30.40
2019-02-22T12:38:03.980Z,34.20
2019-02-22T12:43:10.749Z,33.23
2019-02-22T12:48:17.512Z,40.13
2019-02-22T12:53:23.406Z,37.83
2019-02-22T12:58:31.308Z,48.00
2019-02-22T13:03:37.179Z,43.70
2019-02-22T13:08:56.730Z,44.93
2019-02-22T13:14:03.706Z,45.07
2019-02-22T13:19:29.080Z,54.27
2019-02-22T13:24:36.094Z,46.60
2019-02-22T13:29:42.952Z,49.73
2019-02-22T13:34:49.761Z,47.07
2019-02-22T13:39:56.746Z,45.63
2019-02-22T13:45:06.791Z,50.57
2019-02-22T13:50:17.024Z,49.23
2019-02-22T13:55:23.537Z,51.77
2019-02-22T14:00:29.607Z,51.87
2019-02-22T14:05:49.173Z,52.50
2019-02-22T14:10:56.394Z,53.53
2019-02-22T14:16:02.963Z,57.13
2019-02-22T14:21:09.590Z,54.77
2019-02-22T14:26:17.461Z,51.57
2019-02-22T14:31:23.539Z,45.77
2019-02-22T14:36:31.147Z,45.70
2019-02-22T14:41:38.101Z,40.43
2019-02-22T14:46:44.577Z,37.53
2019-02-22T14:52:12.839Z,35.37
2019-02-22T14:57:19.609Z,44.10
2019-02-22T15:02:25.596Z,43.67
2019-02-22T15:07:32.428Z,47.23
2019-02-22T15:12:38.432Z,56.07
2019-02-22T15:17:46.162Z,52.27
2019-02-22T15:22:53.156Z,55.30
2019-02-22T15:28:00.138Z,49.17
2019-02-22T15:33:07.310Z,45.53
2019-02-22T15:38:14.546Z,44.37
2019-02-22T15:43:21.705Z,43.90
2019-02-22T15:48:27.901Z,39.20
2019-02-22T15:53:34.136Z,42.43
2019-02-22T15:58:41.097Z,40.87
2019-02-22T16:03:55.598Z,33.37
2019-02-22T16:09:03.058Z,37.03
2019-02-22T16:14:11.851Z,38.30
2019-02-22T16:19:19.511Z,36.30
2019-02-22T16:24:25.718Z,38.00
2019-02-22T16:29:32.743Z,36.90
2019-02-22T16:35:02.121Z,38.00
2019-02-22T16:40:12.450Z,32.47
2019-02-22T16:45:19.674Z,30.73
2019-02-22T16:50:25.656Z,33.10
2019-02-22T16:55:31.987Z,32.73
2019-02-22T17:00:39.406Z,31.03
2019-02-22T17:05:46.918Z,30.93
2019-02-22T17:10:54.316Z,28.80
2019-02-22T17:16:01.801Z,28.47
2019-02-22T17:21:09.068Z,29.00
2019-02-22T17:26:16.646Z,27.53
2019-02-22T17:31:23.317Z,27.17
2019-02-22T17:36:29.760Z,24.73
2019-02-22T17:41:36.180Z,25.97
2019-02-22T17:46:43.731Z,26.13
2019-02-22T17:51:50.633Z,30.70
2019-02-22T17:56:59.664Z,28.53
2019-02-22T18:02:18.328Z,28.73
2019-02-22T18:07:24.341Z,30.87
2019-02-22T18:12:31.538Z,32.30
2019-02-22T18:17:37.501Z,31.77
2019-02-22T18:22:44.413Z,34.30
2019-02-22T18:27:51.263Z,32.57
2019-02-22T18:32:58.287Z,33.13
2019-02-22T18:38:05.273Z,34.60
2019-02-22T18:43:12.213Z,34.70
2019-02-22T18:48:19.037Z,35.37
2019-02-22T18:53:25.267Z,37.97
2019-02-22T18:58:32.268Z,37.90
2019-02-22T19:03:38.962Z,36.20
2019-02-22T19:08:45.889Z,45.27
2019-02-22T19:13:52.854Z,41.97
2019-02-22T19:18:59.552Z,41.97
2019-02-22T19:24:06.402Z,39.47
2019-02-22T19:29:13.399Z,37.77
2019-02-22T19:34:20.004Z,45.17
2019-02-22T19:39:26.020Z,46.37
2019-02-22T19:44:35.038Z,43.43
2019-02-22T19:49:41.713Z,38.20
2019-02-22T19:54:48.273Z,41.57
2019-02-22T20:00:17.157Z,44.60
2019-02-22T20:05:23.355Z,42.77
2019-02-22T20:10:29.597Z,47.07
2019-02-22T20:15:48.874Z,44.03
2019-02-22T20:20:55.796Z,52.43
2019-02-22T20:26:02.522Z,54.43
2019-02-22T20:31:19.928Z,51.30
2019-02-22T20:36:27.931Z,53.03
2019-02-22T20:41:27.433Z,57.90
2019-02-22T20:46:35.311Z,70.20
2019-02-22T20:51:42.948Z,66.70
2019-02-22T20:56:50.045Z,65.00
2019-02-22T21:01:56.986Z,67.37
2019-02-22T21:07:04.954Z,62.90
2019-02-22T21:12:11.944Z,62.03
2019-02-22T21:17:18.803Z,60.27
2019-02-22T21:22:24.805Z,62.57
2019-02-22T21:27:30.752Z,63.03
2019-02-22T21:32:37.790Z,52.73
2019-02-22T21:37:44.957Z,52.33
2019-02-22T21:43:10.194Z,58.73
2019-02-22T21:48:27.123Z,59.07
2019-02-22T21:53:25.269Z,56.83
2019-02-22T21:58:31.421Z,56.40
2019-02-22T22:03:37.417Z,56.00
2019-02-22T22:08:44.410Z,61.50
2019-02-22T22:14:12.478Z,52.63
2019-02-22T22:19:19.140Z,60.70
2019-02-22T22:24:25.103Z,58.43
2019-02-22T22:29:32.805Z,56.83
2019-02-22T22:34:39.641Z,51.37
2019-02-22T22:39:46.555Z,52.03
2019-02-22T22:44:53.467Z,59.67
2019-02-22T22:50:00.459Z,51.10
2019-02-22T22:55:09.670Z,54.13
2019-02-22T23:00:51.540Z,55.60
2019-02-22T23:06:19.402Z,56.20
2019-02-22T23:11:25.472Z,50.97
2019-02-22T23:16:32.352Z,49.10
2019-02-22T23:21:38.397Z,54.73
2019-02-22T23:26:45.222Z,55.37
2019-02-22T23:31:52.116Z,52.10
2019-02-22T23:36:59.013Z,51.53
2019-02-22T23:42:05.527Z,54.67
2019-02-22T23:47:12.074Z,55.97
2019-02-22T23:52:18.571Z,53.70
2019-02-22T23:57:24.568Z,55.70
